createdAt,value
2022-09-28T00:01:13.731Z,65.98
2022-09-28T00:03:40.739Z,66.21
2022-09-28T00:06:10.198Z,66.65
2022-09-28T00:08:37.901Z,66.84
2022-09-28T00:11:06.870Z,67.03
2022-09-28T00:13:34.470Z,66.92
2022-09-28T00:16:07.967Z,67.17
2022-09-28T00:18:36.280Z,67.05
2022-09-28T00:21:25.585Z,66.78
2022-09-28T00:24:12.734Z,67.40
2022-09-28T00:26:51.435Z,67.32
2022-09-28T00:29:27.106Z,67.92
2022-09-28T00:32:02.207Z,67.51
2022-09-28T00:34:32.151Z,68.09
2022-09-28T00:37:00.288Z,67.78
2022-09-28T00:39:27.420Z,68.05
2022-09-28T00:41:55.043Z,68.29
2022-09-28T00:44:50.232Z,68.32
2022-09-28T00:47:37.465Z,68.15
2022-09-28T00:50:26.661Z,67.75
2022-09-28T00:53:19.110Z,68.50
2022-09-28T00:55:54.828Z,68.00
2022-09-28T00:58:27.604Z,68.01
2022-09-28T01:00:57.280Z,68.28
2022-09-28T01:03:25.667Z,68.24
2022-09-28T01:05:55.124Z,68.74
2022-09-28T01:08:24.604Z,68.42
2022-09-28T01:10:52.163Z,68.61
2022-09-28T01:13:22.135Z,68.29
2022-09-28T01:16:01.055Z,68.44
2022-09-28T01:18:28.323Z,68.86
2022-09-28T01:21:04.065Z,68.61
2022-09-28T01:27:44.933Z,68.54
2022-09-28T01:30:18.282Z,68.65
2022-09-28T01:32:56.110Z,67.94
2022-09-28T01:35:36.449Z,68.58
2022-09-28T01:38:10.511Z,68.35
2022-09-28T01:40:37.962Z,68.16
2022-09-28T01:43:11.100Z,68.13
2022-09-28T01:45:49.230Z,68.55
2022-09-28T01:48:23.345Z,68.60
2022-09-28T01:50:57.633Z,68.63
2022-09-28T01:53:41.428Z,68.80
2022-09-28T01:56:20.883Z,68.72
2022-09-28T01:59:10.217Z,68.37
2022-09-28T02:01:46.074Z,68.65
2022-09-28T02:04:24.024Z,67.84
2022-09-28T02:06:58.502Z,68.55
2022-09-28T02:09:37.516Z,69.14
2022-09-28T02:12:13.375Z,68.71
2022-09-28T02:14:44.177Z,68.39
2022-09-28T02:17:12.031Z,69.31
2022-09-28T02:19:39.964Z,68.30
2022-09-28T02:22:33.785Z,68.86
2022-09-28T02:25:11.882Z,68.69
2022-09-28T02:28:01.232Z,68.09
2022-09-28T02:30:33.976Z,68.78
2022-09-28T02:33:12.995Z,68.07
2022-09-28T02:35:42.576Z,68.19
2022-09-28T02:38:14.197Z,68.63
2022-09-28T02:40:44.956Z,68.44
2022-09-28T02:43:12.476Z,69.32
2022-09-28T02:46:04.276Z,68.31
2022-09-28T02:49:00.169Z,67.95
2022-09-28T02:51:36.266Z,69.29
2022-09-28T02:54:44.435Z,68.59
2022-09-28T02:57:28.248Z,69.14
2022-09-28T02:59:55.233Z,68.48
2022-09-28T03:02:59.048Z,68.22
2022-09-28T03:05:37.544Z,68.74
2022-09-28T03:08:25.265Z,68.53
2022-09-28T03:11:03.484Z,68.32
2022-09-28T03:13:32.725Z,68.11
2022-09-28T03:16:13.153Z,68.03
2022-09-28T03:18:41.510Z,68.64
2022-09-28T03:21:11.200Z,68.95
2022-09-28T03:23:39.071Z,68.51
2022-09-28T03:26:08.891Z,68.69
2022-09-28T03:28:36.374Z,68.63
2022-09-28T03:31:04.506Z,67.97
2022-09-28T03:33:31.580Z,68.07
2022-09-28T03:35:58.990Z,68.62
2022-09-28T03:38:26.411Z,68.04
2022-09-28T03:40:55.876Z,68.12
2022-09-28T03:43:23.822Z,68.40
2022-09-28T03:45:55.362Z,68.21
2022-09-28T03:48:28.687Z,67.69
2022-09-28T03:50:58.447Z,67.56
2022-09-28T03:53:26.255Z,67.99
2022-09-28T03:55:53.779Z,67.76
2022-09-28T03:58:21.808Z,68.00
2022-09-28T04:00:50.119Z,68.05
2022-09-28T04:03:17.272Z,67.56
2022-09-28T04:05:53.048Z,67.88
2022-09-28T04:08:20.469Z,67.91
2022-09-28T04:10:47.780Z,68.59
2022-09-28T04:13:15.014Z,68.31
2022-09-28T04:15:43.200Z,67.63
2022-09-28T04:18:11.825Z,67.70
2022-09-28T04:21:19.605Z,67.63
2022-09-28T04:23:51.909Z,67.97
2022-09-28T04:26:24.747Z,67.63
2022-09-28T04:29:10.500Z,68.02
2022-09-28T04:31:56.224Z,67.68
2022-09-28T04:34:36.565Z,68.01
2022-09-28T04:37:05.983Z,68.09
2022-09-28T04:39:33.055Z,67.74
2022-09-28T04:42:00.201Z,68.04
2022-09-28T04:44:28.140Z,67.98
2022-09-28T04:47:04.227Z,67.48
2022-09-28T04:49:32.050Z,67.02
2022-09-28T04:52:17.177Z,67.13
2022-09-28T04:54:45.628Z,67.41
2022-09-28T04:57:12.679Z,67.43
2022-09-28T04:59:39.609Z,66.90
2022-09-28T05:02:06.709Z,66.94
2022-09-28T05:04:56.541Z,67.13
2022-09-28T05:07:36.471Z,67.31
2022-09-28T05:10:06.092Z,67.03
2022-09-28T05:12:33.594Z,67.84
2022-09-28T05:15:00.995Z,67.00
2022-09-28T05:17:30.253Z,67.58
2022-09-28T05:20:07.250Z,67.16
2022-09-28T05:22:34.611Z,67.16
2022-09-28T05:25:03.266Z,67.57
2022-09-28T05:27:39.725Z,66.51
2022-09-28T05:30:23.488Z,66.64
2022-09-28T05:33:23.110Z,66.67
2022-09-28T05:36:01.062Z,66.59
2022-09-28T05:38:30.297Z,66.87
2022-09-28T05:40:57.750Z,66.74
2022-09-28T05:43:24.857Z,66.36
2022-09-28T05:45:55.677Z,66.42
2022-09-28T05:48:23.220Z,66.07
2022-09-28T05:50:54.648Z,66.23
2022-09-28T05:53:21.701Z,66.40
2022-09-28T05:55:48.844Z,67.02
2022-09-28T05:58:16.859Z,66.53
2022-09-28T06:00:44.228Z,66.89
2022-09-28T06:03:13.969Z,66.11
2022-09-28T06:05:41.195Z,66.09
2022-09-28T06:08:10.699Z,66.03
2022-09-28T06:10:42.467Z,66.35
2022-09-28T06:13:10.533Z,66.08
2022-09-28T06:15:39.204Z,65.68
2022-09-28T06:18:09.714Z,66.10
2022-09-28T06:20:41.845Z,65.72
2022-09-28T06:23:14.136Z,65.66
2022-09-28T06:25:41.621Z,65.74
2022-09-28T06:28:13.918Z,65.48
2022-09-28T06:30:42.617Z,64.99
2022-09-28T06:33:14.592Z,65.14
2022-09-28T06:35:42.501Z,64.73
2022-09-28T06:38:10.594Z,64.74
2022-09-28T06:40:38.265Z,64.24
2022-09-28T06:43:12.787Z,64.98
2022-09-28T06:45:58.250Z,64.04
2022-09-28T06:48:51.669Z,63.82
2022-09-28T06:51:38.897Z,63.93
2022-09-28T06:54:32.142Z,64.77
2022-09-28T06:57:31.256Z,64.08
2022-09-28T06:59:58.214Z,63.98
2022-09-28T07:02:27.369Z,63.74
2022-09-28T07:05:19.290Z,64.08
2022-09-28T07:08:05.208Z,63.98
2022-09-28T07:10:46.699Z,63.99
2022-09-28T07:13:49.178Z,64.24
2022-09-28T07:16:15.750Z,63.71
2022-09-28T07:18:42.778Z,63.92
2022-09-28T07:21:18.712Z,63.38
2022-09-28T07:23:53.911Z,63.05
2022-09-28T07:26:24.731Z,63.09
2022-09-28T07:29:14.709Z,63.49
2022-09-28T07:31:56.494Z,62.88
2022-09-28T07:34:29.203Z,63.26
2022-09-28T07:37:12.630Z,62.77
2022-09-28T07:39:58.561Z,63.10
2022-09-28T07:42:30.178Z,63.05
2022-09-28T07:45:00.023Z,62.66
2022-09-28T07:47:32.287Z,63.11
2022-09-28T07:50:40.237Z,63.08
2022-09-28T07:53:26.087Z,63.06
2022-09-28T07:56:28.577Z,62.79
2022-09-28T07:59:17.657Z,62.16
2022-09-28T08:02:03.509Z,62.19
2022-09-28T08:04:30.673Z,62.00
2022-09-28T08:06:59.825Z,61.87
2022-09-28T08:09:26.899Z,61.68
2022-09-28T08:12:13.511Z,60.99
2022-09-28T08:14:59.002Z,60.71
2022-09-28T08:17:48.348Z,60.50
2022-09-28T08:20:36.101Z,60.70
2022-09-28T08:23:08.362Z,60.53
2022-09-28T08:25:39.548Z,61.34
2022-09-28T08:28:07.574Z,61.06
2022-09-28T08:30:41.473Z,60.98
2022-09-28T08:33:35.461Z,60.69
2022-09-28T08:36:21.247Z,60.78
2022-09-28T08:39:07.281Z,60.43
2022-09-28T08:42:06.881Z,61.04
2022-09-28T08:48:06.822Z,60.23
2022-09-28T08:51:00.858Z,59.42
2022-09-28T08:54:08.157Z,59.47
2022-09-28T08:56:54.541Z,59.23
2022-09-28T08:59:29.988Z,59.56
2022-09-28T09:02:22.501Z,59.13
2022-09-28T09:04:53.085Z,59.94
2022-09-28T09:07:31.995Z,59.71
2022-09-28T09:10:27.054Z,59.16
2022-09-28T09:13:22.207Z,59.14
2022-09-28T09:15:56.029Z,59.31
2022-09-28T09:18:37.520Z,59.84
2022-09-28T09:21:41.737Z,59.52
2022-09-28T09:24:27.505Z,59.39
2022-09-28T09:27:36.951Z,59.39
2022-09-28T09:30:17.730Z,58.85
2022-09-28T09:33:12.713Z,59.11
2022-09-28T09:36:25.013Z,59.50
2022-09-28T09:39:18.652Z,59.88
2022-09-28T09:42:30.034Z,60.08
2022-09-28T09:45:32.881Z,59.81
2022-09-28T09:48:45.824Z,60.30
2022-09-28T09:51:21.619Z,60.52
2022-09-28T09:54:00.195Z,60.29
2022-09-28T09:56:44.102Z,60.61
2022-09-28T09:59:40.189Z,60.83
2022-09-28T10:02:31.917Z,60.76
2022-09-28T10:05:24.182Z,60.37
2022-09-28T10:07:58.517Z,59.77
2022-09-28T10:10:39.161Z,60.51
2022-09-28T10:13:13.618Z,60.73
2022-09-28T10:15:45.919Z,60.94
2022-09-28T10:18:22.661Z,60.72
2022-09-28T10:21:13.365Z,60.04
2022-09-28T10:23:54.668Z,61.13
2022-09-28T10:26:32.560Z,61.57
2022-09-28T10:29:01.750Z,61.54
2022-09-28T10:31:38.194Z,61.17
2022-09-28T10:34:14.329Z,61.22
2022-09-28T10:37:00.638Z,61.72
2022-09-28T10:39:39.802Z,61.47
2022-09-28T10:42:31.471Z,61.31
2022-09-28T10:45:19.921Z,60.95
2022-09-28T10:47:47.247Z,61.01
2022-09-28T10:50:22.852Z,61.07
2022-09-28T10:53:11.530Z,61.33
2022-09-28T10:56:21.571Z,61.24
2022-09-28T10:58:53.465Z,60.79
2022-09-28T11:01:33.306Z,61.18
2022-09-28T11:04:04.912Z,60.87
2022-09-28T11:06:36.958Z,60.86
2022-09-28T11:09:08.269Z,60.67
2022-09-28T11:11:42.174Z,60.38
2022-09-28T11:14:42.206Z,60.77
2022-09-28T11:17:32.712Z,60.33
2022-09-28T11:20:26.112Z,60.56
2022-09-28T11:23:20.479Z,60.68
2022-09-28T11:25:59.141Z,60.53
2022-09-28T11:28:32.787Z,59.91
2022-09-28T11:31:07.324Z,59.83
2022-09-28T11:33:48.257Z,59.53
2022-09-28T11:37:08.897Z,59.68
2022-09-28T11:40:11.277Z,59.87
2022-09-28T11:43:16.710Z,59.69
2022-09-28T11:45:44.839Z,59.27
2022-09-28T11:48:15.769Z,59.59
2022-09-28T11:51:00.208Z,58.77
2022-09-28T11:53:47.887Z,58.93
2022-09-28T11:56:31.459Z,58.96
2022-09-28T11:59:11.052Z,59.08
2022-09-28T12:01:42.787Z,58.94
2022-09-28T12:04:20.728Z,59.27
2022-09-28T12:06:56.575Z,59.35
2022-09-28T12:09:43.793Z,58.85
2022-09-28T12:12:32.588Z,59.33
2022-09-28T12:15:47.223Z,59.32
2022-09-28T12:18:56.486Z,59.32
2022-09-28T12:21:36.950Z,58.78
2022-09-28T12:24:15.412Z,58.91
2022-09-28T12:27:03.552Z,58.47
2022-09-28T12:29:53.578Z,58.34
2022-09-28T12:32:26.255Z,58.71
2022-09-28T12:34:53.278Z,58.46
2022-09-28T12:37:45.671Z,58.13
2022-09-28T12:40:20.594Z,58.24
2022-09-28T12:43:01.865Z,58.21
2022-09-28T12:46:07.032Z,58.70
2022-09-28T12:49:24.172Z,58.24
2022-09-28T12:51:53.810Z,57.74
2022-09-28T12:54:58.092Z,58.13
2022-09-28T12:57:57.728Z,58.18
2022-09-28T13:00:32.140Z,58.40
2022-09-28T13:03:33.156Z,58.25
2022-09-28T13:06:29.108Z,57.98
2022-09-28T13:08:58.823Z,57.66
2022-09-28T13:11:32.198Z,58.47
2022-09-28T13:14:30.503Z,57.94
2022-09-28T13:17:25.791Z,58.53
2022-09-28T13:20:16.305Z,58.38
2022-09-28T13:23:01.785Z,58.23
2022-09-28T13:25:37.394Z,58.21
2022-09-28T13:28:08.108Z,58.48
2022-09-28T13:30:45.459Z,58.59
2022-09-28T13:33:39.654Z,58.41
2022-09-28T13:39:57.976Z,58.83
2022-09-28T13:42:45.521Z,59.06
2022-09-28T13:45:43.867Z,58.79
2022-09-28T13:48:25.598Z,58.07
2022-09-28T13:51:12.718Z,58.29
2022-09-28T13:54:07.011Z,58.49
2022-09-28T13:57:04.777Z,59.67
2022-09-28T13:59:51.102Z,59.44
2022-09-28T14:02:39.952Z,59.42
2022-09-28T14:05:32.861Z,59.21
2022-09-28T14:08:16.725Z,58.93
2022-09-28T14:11:06.492Z,58.80
2022-09-28T14:14:16.343Z,59.06
2022-09-28T14:16:57.199Z,58.30
2022-09-28T14:19:41.318Z,58.33
2022-09-28T14:22:41.888Z,59.28
2022-09-28T14:25:38.451Z,59.81
2022-09-28T14:28:42.153Z,59.68
2022-09-28T14:31:29.673Z,60.17
2022-09-28T14:34:14.264Z,60.11
2022-09-28T14:37:12.541Z,59.56
2022-09-28T14:40:04.610Z,59.92
2022-09-28T14:42:31.763Z,60.12
2022-09-28T14:45:07.309Z,60.13
2022-09-28T14:47:41.696Z,60.57
2022-09-28T14:50:28.733Z,59.86
2022-09-28T14:53:12.400Z,60.88
2022-09-28T14:55:50.328Z,60.65
2022-09-28T14:58:22.678Z,60.19
2022-09-28T15:00:55.497Z,60.66
2022-09-28T15:03:25.601Z,60.79
2022-09-28T15:05:52.813Z,60.22
2022-09-28T15:08:21.348Z,60.16
2022-09-28T15:10:51.666Z,60.33
2022-09-28T15:13:26.029Z,60.95
2022-09-28T15:16:12.841Z,60.87
2022-09-28T15:19:11.044Z,61.06
2022-09-28T15:21:41.280Z,61.37
2022-09-28T15:24:32.215Z,61.21
2022-09-28T15:27:13.927Z,61.36
2022-09-28T15:29:41.130Z,61.17
2022-09-28T15:32:23.966Z,61.35
2022-09-28T15:34:54.793Z,61.12
2022-09-28T15:37:24.594Z,60.96
2022-09-28T15:39:53.857Z,61.14
2022-09-28T15:42:21.170Z,61.36
2022-09-28T15:45:07.838Z,61.25
2022-09-28T15:47:35.516Z,61.01
2022-09-28T15:50:06.170Z,61.13
2022-09-28T15:52:57.168Z,61.29
2022-09-28T15:55:42.507Z,61.08
2022-09-28T15:58:12.620Z,60.66
2022-09-28T16:00:40.474Z,60.82
2022-09-28T16:03:07.486Z,60.62
2022-09-28T16:05:59.260Z,60.75
2022-09-28T16:08:42.349Z,59.88
2022-09-28T16:11:26.098Z,59.85
2022-09-28T16:14:06.838Z,59.00
2022-09-28T16:16:37.181Z,59.15
2022-09-28T16:19:05.826Z,59.03
2022-09-28T16:21:49.498Z,59.28
2022-09-28T16:24:28.465Z,58.95
2022-09-28T16:27:01.681Z,58.63
2022-09-28T16:29:42.940Z,57.68
2022-09-28T16:32:25.165Z,58.30
2022-09-28T16:35:10.341Z,58.42
2022-09-28T16:37:40.936Z,58.23
2022-09-28T16:40:09.105Z,58.49
2022-09-28T16:42:39.038Z,58.09
2022-09-28T16:45:08.325Z,58.55
2022-09-28T16:47:36.099Z,57.75
2022-09-28T16:50:06.659Z,57.97
2022-09-28T16:52:54.020Z,57.66
2022-09-28T16:55:39.500Z,58.31
2022-09-28T16:58:08.263Z,58.12
2022-09-28T17:00:35.526Z,57.52
2022-09-28T17:03:05.367Z,57.58
2022-09-28T17:05:32.405Z,57.45
2022-09-28T17:08:04.210Z,58.01
2022-09-28T17:10:55.726Z,58.21
2022-09-28T17:13:33.807Z,59.07
2022-09-28T17:16:04.481Z,58.44
2022-09-28T17:18:32.225Z,59.04
2022-09-28T17:21:03.509Z,58.89
2022-09-28T17:23:33.403Z,58.63
2022-09-28T17:26:02.143Z,58.62
2022-09-28T17:28:34.758Z,58.88
2022-09-28T17:31:03.158Z,58.99
2022-09-28T17:33:30.490Z,59.06
2022-09-28T17:36:04.914Z,59.62
2022-09-28T17:38:35.455Z,59.84
2022-09-28T17:41:02.645Z,60.07
2022-09-28T17:43:29.718Z,60.70
2022-09-28T17:45:56.944Z,60.68
2022-09-28T17:48:24.453Z,60.46
2022-09-28T17:50:52.049Z,60.97
2022-09-28T17:53:19.770Z,61.07
2022-09-28T17:55:46.714Z,61.12
2022-09-28T17:58:21.859Z,61.06
2022-09-28T18:00:51.561Z,61.46
2022-09-28T18:03:22.520Z,61.42
2022-09-28T18:06:04.589Z,61.53
2022-09-28T18:08:31.680Z,61.73
2022-09-28T18:11:01.737Z,61.58
2022-09-28T18:13:29.109Z,61.94
2022-09-28T18:15:56.372Z,62.13
2022-09-28T18:18:25.228Z,61.26
2022-09-28T18:20:52.815Z,61.41
2022-09-28T18:23:20.506Z,61.97
2022-09-28T18:25:48.165Z,61.64
2022-09-28T18:28:15.793Z,61.99
2022-09-28T18:31:13.028Z,61.87
2022-09-28T18:33:53.404Z,62.31
2022-09-28T18:36:20.870Z,62.12
2022-09-28T18:38:48.030Z,62.17
2022-09-28T18:41:16.411Z,62.07
2022-09-28T18:44:08.998Z,62.02
2022-09-28T18:46:36.816Z,62.07
2022-09-28T18:49:04.726Z,62.36
2022-09-28T18:51:31.862Z,62.21
2022-09-28T18:54:00.217Z,62.14
2022-09-28T18:56:28.045Z,62.30
2022-09-28T18:58:55.140Z,62.34
2022-09-28T19:01:30.874Z,61.53
2022-09-28T19:04:06.317Z,62.03
2022-09-28T19:06:35.568Z,62.03
2022-09-28T19:09:03.280Z,61.90
2022-09-28T19:11:30.420Z,61.74
2022-09-28T19:13:57.529Z,61.84
2022-09-28T19:16:27.620Z,61.80
2022-09-28T19:18:59.206Z,61.79
2022-09-28T19:21:27.099Z,62.43
2022-09-28T19:23:55.727Z,62.11
2022-09-28T19:26:27.624Z,62.33
2022-09-28T19:29:08.157Z,62.23
2022-09-28T19:32:00.581Z,62.82
2022-09-28T19:34:42.973Z,62.75
2022-09-28T19:37:10.706Z,62.45
2022-09-28T19:39:37.738Z,62.75
2022-09-28T19:42:04.904Z,62.78
2022-09-28T19:44:33.433Z,62.80
2022-09-28T19:47:10.135Z,62.93
2022-09-28T19:49:39.006Z,62.22
2022-09-28T19:52:15.893Z,62.58
2022-09-28T19:54:45.222Z,62.38
2022-09-28T19:57:14.632Z,62.73
2022-09-28T19:59:41.739Z,62.58
2022-09-28T20:02:10.363Z,62.69
2022-09-28T20:04:37.294Z,62.80
2022-09-28T20:07:05.004Z,62.79
2022-09-28T20:09:32.509Z,62.45
2022-09-28T20:11:59.744Z,62.46
2022-09-28T20:14:32.007Z,62.34
2022-09-28T20:16:59.857Z,62.03
2022-09-28T20:19:26.881Z,62.17
2022-09-28T20:21:54.903Z,62.62
2022-09-28T20:24:21.944Z,62.80
2022-09-28T20:26:49.713Z,62.10
2022-09-28T20:29:16.738Z,62.91
2022-09-28T20:31:44.215Z,62.42
2022-09-28T20:34:12.393Z,62.60
2022-09-28T20:36:42.358Z,62.58
2022-09-28T20:39:10.577Z,62.86
2022-09-28T20:41:37.798Z,62.51
2022-09-28T20:44:06.672Z,62.75
2022-09-28T20:46:35.412Z,62.75
2022-09-28T20:49:03.252Z,62.46
2022-09-28T20:51:30.517Z,62.56
2022-09-28T20:53:58.936Z,62.42
2022-09-28T20:56:48.174Z,62.44
2022-09-28T20:59:15.680Z,61.96
2022-09-28T21:01:42.771Z,61.94
2022-09-28T21:04:10.429Z,62.42
2022-09-28T21:06:42.012Z,62.29
2022-09-28T21:09:10.899Z,62.41
2022-09-28T21:11:38.743Z,62.51
2022-09-28T21:14:09.686Z,62.96
2022-09-28T21:16:36.636Z,63.27
2022-09-28T21:19:04.183Z,62.92
2022-09-28T21:21:31.550Z,62.94
2022-09-28T21:23:58.881Z,62.80
2022-09-28T21:26:28.167Z,62.73
2022-09-28T21:28:59.712Z,62.70
2022-09-28T21:31:29.903Z,62.87
2022-09-28T21:33:57.704Z,63.14
2022-09-28T21:36:25.847Z,62.86
2022-09-28T21:38:54.238Z,62.92
2022-09-28T21:41:21.196Z,62.24
2022-09-28T21:43:48.119Z,62.75
2022-09-28T21:46:15.032Z,63.28
2022-09-28T21:48:42.005Z,62.67
2022-09-28T21:51:12.763Z,62.96
2022-09-28T21:53:39.756Z,62.98
2022-09-28T21:56:09.951Z,62.79
2022-09-28T21:58:37.417Z,62.96
2022-09-28T22:01:13.248Z,63.39
2022-09-28T22:03:41.186Z,63.27
2022-09-28T22:06:08.754Z,63.00
2022-09-28T22:08:37.107Z,62.37
2022-09-28T22:11:07.462Z,62.48
2022-09-28T22:13:55.895Z,62.98
2022-09-28T22:16:25.557Z,63.25
2022-09-28T22:18:52.763Z,62.59
2022-09-28T22:21:21.980Z,62.94
2022-09-28T22:23:50.039Z,63.25
2022-09-28T22:26:21.768Z,62.88
2022-09-28T22:28:57.574Z,62.32
2022-09-28T22:31:27.763Z,62.58
2022-09-28T22:33:55.061Z,62.42
2022-09-28T22:36:22.217Z,62.32
2022-09-28T22:38:49.760Z,62.07
2022-09-28T22:41:20.717Z,62.45
2022-09-28T22:43:51.853Z,62.39
2022-09-28T22:46:22.634Z,62.21
2022-09-28T22:48:52.838Z,62.19
2022-09-28T22:51:20.914Z,62.57
2022-09-28T22:53:48.122Z,62.66
2022-09-28T22:56:18.707Z,62.58
2022-09-28T22:58:46.718Z,62.26
2022-09-28T23:01:13.568Z,62.00
2022-09-28T23:03:42.234Z,62.05
2022-09-28T23:06:09.897Z,61.90
2022-09-28T23:08:36.929Z,62.08
2022-09-28T23:11:04.533Z,61.63
2022-09-28T23:13:31.584Z,61.38
2022-09-28T23:16:07.746Z,60.58
2022-09-28T23:18:37.194Z,61.16
2022-09-28T23:21:06.635Z,60.97
2022-09-28T23:23:33.925Z,60.81
2022-09-28T23:26:09.580Z,60.58
2022-09-28T23:28:36.565Z,60.82
2022-09-28T23:31:18.516Z,60.16
2022-09-28T23:33:46.124Z,60.22
2022-09-28T23:36:13.437Z,60.45
2022-09-28T23:38:40.795Z,60.60
2022-09-28T23:41:07.933Z,60.59
2022-09-28T23:43:35.076Z,60.59
2022-09-28T23:46:03.720Z,60.47
2022-09-28T23:48:31.119Z,59.87
2022-09-28T23:50:57.999Z,59.95
2022-09-28T23:53:25.356Z,60.12
2022-09-28T23:55:54.632Z,60.22
2022-09-28T23:58:21.918Z,60.68
